Time;durP1;ratioP1;P1;durP2;ratioP2;P2;SDS_P1;SDS_P2;PMS_P1;PMS_P2;Temp;Humidity;BMP_temperature;BMP_pressure;BME280_temperature;BME280_humidity;BME280_pressure;Samples;Min_cycle;Max_cycle;Signal;HPM_P1;HPM_P2
2023/01/04 00:00:42;;;;;;;140.18;77.62;;;;;;;0.30;77.09;101630.45;2122832;83;30569;-62
2023/01/04 00:03:45;;;;;;;134.67;74.95;;;;;;;0.33;77.16;101622.59;2146128;83;27680;-62
2023/01/04 00:06:47;;;;;;;133.22;75.83;;;;;;;0.35;77.21;101622.16;2145714;83;29977;-62
2023/01/04 00:09:49;;;;;;;136.37;76.07;;;;;;;0.41;77.40;101619.62;2145913;82;31327;-62
2023/01/04 00:12:51;;;;;;;132.00;72.40;;;;;;;0.45;77.40;101617.48;2145766;83;34319;-61
2023/01/04 00:15:55;;;;;;;142.80;72.27;;;;;;;0.49;77.48;101602.58;2146055;83;30109;-61
2023/01/04 00:18:58;;;;;;;139.92;73.85;;;;;;;0.55;77.56;101600.03;2145935;82;27849;-61
2023/01/04 00:22:00;;;;;;;138.22;71.15;;;;;;;0.61;77.44;101607.14;2146253;82;29365;-62
2023/01/04 00:25:03;;;;;;;141.90;77.22;;;;;;;0.64;77.43;101607.18;2146147;82;30822;-62
2023/01/04 00:28:05;;;;;;;141.65;73.52;;;;;;;0.66;77.40;101604.55;2146209;82;33194;-61
2023/01/04 00:31:10;;;;;;;137.28;72.30;;;;;;;0.69;77.52;101616.46;2145657;82;29332;-62
2023/01/04 00:34:15;;;;;;;152.38;80.92;;;;;;;0.71;77.52;101610.78;2127087;83;27693;-62
2023/01/04 00:37:17;;;;;;;165.10;83.52;;;;;;;0.73;77.78;101615.64;2127051;83;29476;-62
2023/01/04 00:40:19;;;;;;;154.82;86.05;;;;;;;0.77;77.95;101612.59;2140371;83;31042;-62
2023/01/04 00:43:21;;;;;;;152.50;82.02;;;;;;;0.82;78.08;101605.64;2117401;84;33475;-62
2023/01/04 00:46:24;;;;;;;147.72;83.58;;;;;;;0.85;78.11;101606.55;2139979;83;30198;-61
2023/01/04 00:49:29;;;;;;;154.75;84.55;;;;;;;0.93;78.24;101599.14;2117598;84;27701;-62
2023/01/04 00:52:31;;;;;;;;;;;;;;;0.99;78.33;101589.98;2142611;83;29891;-62
2023/01/04 00:55:33;;;;;;;148.07;78.72;;;;;;;1.04;78.34;101593.11;2117103;83;31067;-62
2023/01/04 00:58:36;;;;;;;163.43;84.67;;;;;;;1.10;78.37;101585.69;2140103;82;33515;-62
2023/01/04 01:01:39;;;;;;;162.47;86.35;;;;;;;1.12;78.14;101592.33;2117430;83;29441;-62
2023/01/04 01:04:42;;;;;;;155.45;83.78;;;;;;;1.10;77.87;101592.73;2140410;83;27688;-62
2023/01/04 01:07:44;;;;;;;154.38;84.20;;;;;;;1.08;77.80;101588.74;2117432;84;29855;-62
2023/01/04 01:10:46;;;;;;;151.70;80.35;;;;;;;1.03;77.60;101605.86;2139946;83;31075;-62
2023/01/04 01:13:48;;;;;;;147.15;80.67;;;;;;;0.98;77.49;101597.45;2117025;84;33838;-62
2023/01/04 01:16:51;;;;;;;135.57;72.92;;;;;;;0.94;77.43;101605.77;2139935;83;30730;-61
2023/01/04 01:19:53;;;;;;;133.70;75.10;;;;;;;0.88;77.43;101601.31;2117270;83;27819;-62
2023/01/04 01:22:55;;;;;;;132.55;71.42;;;;;;;0.83;77.31;101606.95;2140315;83;29082;-61
2023/01/04 01:26:03;;;;;;;128.53;67.47;;;;;;;0.79;77.30;101597.23;2117064;84;32284;-61
2023/01/04 01:29:05;;;;;;;125.65;66.55;;;;;;;0.74;77.26;101593.23;2139760;82;32979;-62
2023/01/04 01:32:08;;;;;;;119.60;65.10;;;;;;;0.69;77.19;101587.45;2117512;83;29381;-61
2023/01/04 01:35:10;;;;;;;115.55;62.38;;;;;;;0.63;77.12;101590.00;2104347;84;27706;-61
2023/01/04 01:38:13;;;;;;;119.30;64.22;;;;;;;0.56;77.12;101580.72;2081961;85;29505;-62
2023/01/04 01:41:25;;;;;;;119.62;62.38;;;;;;;0.51;77.12;101576.22;2103832;84;31939;-61
2023/01/04 01:44:54;;;;;;;113.60;60.00;;;;;;;0.45;77.02;101574.40;2081758;85;33882;-61
2023/01/04 01:48:16;;;;;;;109.60;58.17;;;;;;;0.38;76.97;101572.13;2135871;83;29344;-61
2023/01/04 01:51:18;;;;;;;100.38;55.80;;;;;;;0.32;76.97;101564.16;2117518;83;27810;-62
2023/01/04 01:54:29;;;;;;;109.10;57.20;;;;;;;0.26;77.09;101564.93;2145611;83;29093;-61
2023/01/04 01:57:34;;;;;;;108.12;57.20;;;;;;;0.21;76.95;101564.00;2145763;81;31425;-62
2023/01/04 02:00:36;;;;;;;99.00;54.10;;;;;;;0.16;77.01;101560.86;2145329;82;33014;-61
2023/01/04 02:03:42;;;;;;;114.90;57.67;;;;;;;0.12;77.13;101562.13;2128548;82;29361;-61
2023/01/04 02:06:51;;;;;;;102.12;55.17;;;;;;;0.08;77.02;101556.80;2126309;83;27679;-61
2023/01/04 02:09:54;;;;;;;104.32;55.25;;;;;;;0.03;76.98;101554.52;2126242;83;28761;-61
2023/01/04 02:12:56;;;;;;;101.47;55.80;;;;;;;0.00;76.98;101550.11;2126249;83;31390;-61
2023/01/04 02:16:06;;;;;;;101.55;55.23;;;;;;;-0.06;77.02;101544.73;2080707;85;33756;-61
2023/01/04 02:19:49;;;;;;;97.67;53.05;;;;;;;-0.09;77.00;101544.69;2080560;85;29451;-61
2023/01/04 02:23:25;;;;;;;97.27;52.88;;;;;;;-0.14;77.03;101545.95;2080717;85;27682;-61
2023/01/04 02:26:39;;;;;;;;;;;;;;;-0.18;77.00;101540.17;2082809;85;30052;-61
2023/01/04 02:30:03;;;;;;;99.60;50.83;;;;;;;-0.23;77.08;101532.21;2080070;85;31409;-61
2023/01/04 02:33:25;;;;;;;96.57;51.37;;;;;;;-0.29;77.12;101536.50;2080023;85;33352;-59
2023/01/04 02:36:38;;;;;;;96.92;51.75;;;;;;;-0.33;77.21;101539.08;2080401;85;29714;-59
2023/01/04 02:39:48;;;;;;;91.72;46.40;;;;;;;-0.36;77.28;101531.13;2112182;84;27719;-59
2023/01/04 02:46:45;;;;;;;81.70;44.93;;;;;;;-0.39;77.43;101516.59;2113030;84;32294;-62
2023/01/04 02:53:20;;;;;;;86.63;44.05;;;;;;;-0.43;77.49;101499.42;2113089;84;30598;-61
2023/01/04 02:57:19;;;;;;;99.83;52.85;;;;;;;-0.45;77.50;101496.78;2109274;84;27720;-60
2023/01/04 03:08:23;;;;;;;93.55;50.65;;;;;;;-0.51;77.62;101490.09;2064530;86;34183;-62
2023/01/04 03:15:18;;;;;;;99.60;49.95;;;;;;;-0.57;77.56;101491.30;2060174;86;27855;-62
2023/01/04 03:18:27;;;;;;;94.87;48.52;;;;;;;-0.62;77.48;101476.34;2062885;86;28688;-62
2023/01/04 03:21:30;;;;;;;89.47;45.10;;;;;;;-0.64;77.54;101469.27;2063091;86;31902;-63
2023/01/04 03:49:34;;;;;;;70.75;38.58;;;;;;;-0.82;77.69;101446.20;2121325;83;27607;-62
2023/01/04 03:52:38;;;;;;;65.95;34.25;;;;;;;-0.83;77.63;101437.84;2113277;82;29646;-63
2023/01/04 03:55:41;;;;;;;64.35;32.58;;;;;;;-0.87;77.68;101426.41;2095447;83;31867;-62
2023/01/04 03:58:44;;;;;;;64.40;33.18;;;;;;;-0.87;77.82;101417.61;2122681;83;33790;-62
2023/01/04 04:01:46;;;;;;;58.15;32.65;;;;;;;-0.87;77.85;101414.98;2126300;83;30521;-62
2023/01/04 04:08:27;;;;;;;62.80;35.20;;;;;;;-0.85;78.21;101414.16;2126170;82;29863;-61
2023/01/04 04:11:30;;;;;;;62.48;33.90;;;;;;;-0.85;78.05;101410.63;2125071;83;32511;-62
2023/01/04 04:14:32;;;;;;;67.47;35.08;;;;;;;-0.86;78.05;101400.97;2139511;83;32960;-61
2023/01/04 04:17:35;;;;;;;65.97;32.35;;;;;;;-0.88;78.06;101398.33;2139046;83;29416;-61
2023/01/04 04:20:40;;;;;;;62.75;31.68;;;;;;;-0.89;78.00;101400.50;2139397;83;27675;-61
2023/01/04 04:23:42;;;;;;;54.55;31.05;;;;;;;-0.88;78.15;101392.16;2139423;83;29989;-62
2023/01/04 04:26:45;;;;;;;55.73;30.35;;;;;;;-0.89;78.12;101389.98;2139344;83;31423;-60
2023/01/04 04:29:47;;;;;;;60.55;31.77;;;;;;;-0.90;78.05;101392.16;2138905;83;33883;-60
2023/01/04 04:32:50;;;;;;;55.52;30.23;;;;;;;-0.91;77.97;101395.64;2148059;82;30520;-74
2023/01/04 04:35:53;;;;;;;57.40;30.23;;;;;;;-0.92;77.98;101392.55;2147920;82;27763;-61
2023/01/04 04:38:55;;;;;;;52.65;30.23;;;;;;;-0.93;77.98;101387.74;2147926;82;28753;-62
2023/01/04 04:41:58;;;;;;;57.48;31.33;;;;;;;-0.96;78.00;101386.37;2147743;82;31462;-62
2023/01/04 04:45:01;;;;;;;59.83;29.87;;;;;;;-0.96;77.98;101388.09;2147693;82;33899;-62
2023/01/04 04:48:04;;;;;;;61.90;33.48;;;;;;;-0.98;77.97;101391.13;2147899;82;29350;-62
2023/01/04 04:51:06;;;;;;;56.33;32.58;;;;;;;-1.00;77.93;101375.79;2154000;82;27712;-62
2023/01/04 04:54:10;;;;;;;59.33;32.30;;;;;;;-1.02;77.97;101377.06;2158155;82;29382;-62
2023/01/04 04:57:12;;;;;;;59.25;31.17;;;;;;;-1.02;77.98;101382.31;2158231;82;31010;-61
2023/01/04 05:00:16;;;;;;;59.10;32.70;;;;;;;-1.03;77.96;101387.56;2148371;81;33692;-61
2023/01/04 05:03:19;;;;;;;60.50;31.90;;;;;;;-1.04;78.00;101386.66;2145136;83;29341;-61
2023/01/04 05:06:21;;;;;;;58.63;31.42;;;;;;;-1.05;78.17;101374.38;2144759;82;27740;-61
2023/01/04 05:09:23;;;;;;;49.67;30.43;;;;;;;-1.04;78.29;101357.73;2144783;83;29961;-60
2023/01/04 05:15:49;;;;;;;53.25;29.32;;;;;;;-1.06;78.29;101351.56;2144703;82;34171;-61
2023/01/04 05:18:52;;;;;;;54.50;27.25;;;;;;;-1.05;78.39;101343.27;2145390;83;29378;-61
2023/01/04 05:21:54;;;;;;;52.35;28.85;;;;;;;-1.04;78.47;101343.72;2129257;83;27547;-62
2023/01/04 05:24:56;;;;;;;62.98;30.48;;;;;;;-1.04;78.48;101332.75;2080569;85;29798;-61
2023/01/04 05:27:59;;;;;;;54.90;32.50;;;;;;;-1.06;78.43;101327.90;2080568;85;32228;-62
2023/01/04 05:31:01;;;;;;;60.55;33.88;;;;;;;-1.05;78.46;101325.72;2080677;85;33073;-62
2023/01/04 05:34:03;;;;;;;58.70;34.88;;;;;;;-1.08;78.39;101321.31;2080176;85;29992;-62
2023/01/04 05:37:06;;;;;;;50.05;29.77;;;;;;;-1.07;78.38;101319.55;2080162;85;27715;-62
2023/01/04 05:40:10;;;;;;;44.60;27.37;;;;;;;-1.08;78.38;101321.77;2080344;85;29497;-62
2023/01/04 05:43:12;;;;;;;50.58;26.87;;;;;;;-1.09;78.46;101318.23;2080262;85;31030;-62
2023/01/04 05:46:15;;;;;;;43.90;26.70;;;;;;;-1.08;78.64;101312.11;2080213;85;32987;-62
2023/01/04 05:49:21;;;;;;;47.43;27.32;;;;;;;-1.08;78.65;101315.19;2080222;85;30110;-62
2023/01/04 05:52:24;;;;;;;48.25;26.55;;;;;;;-1.08;78.65;101309.93;2112762;84;27706;-62
2023/01/04 05:55:29;;;;;;;45.05;24.52;;;;;;;-1.07;78.68;101305.09;2112917;84;29917;-62
2023/01/04 05:58:31;;;;;;;33.48;18.77;;;;;;;-1.05;79.10;101298.56;2114690;82;31069;-62
2023/01/04 06:01:33;;;;;;;65.90;38.28;;;;;;;-1.01;79.32;101301.69;2161813;82;33786;-62
2023/01/04 06:04:35;;;;;;;61.65;36.17;;;;;;;-1.01;79.26;101297.30;2161693;82;29402;-62
2023/01/04 06:07:39;;;;;;;55.60;33.18;;;;;;;-0.99;79.27;101296.89;2162155;82;27700;-61
2023/01/04 06:10:41;;;;;;;56.33;33.95;;;;;;;-0.99;79.23;101290.32;2162050;82;28691;-62
2023/01/04 06:13:43;;;;;;;46.18;27.17;;;;;;;-0.96;79.32;101289.05;2162116;82;31482;-61
2023/01/04 06:16:46;;;;;;;41.85;23.87;;;;;;;-0.94;79.55;101280.76;2161625;82;33829;-62
2023/01/04 06:19:48;;;;;;;40.75;24.47;;;;;;;-0.89;79.72;101279.50;2161922;82;30171;-61
2023/01/04 06:22:51;;;;;;;41.35;25.50;;;;;;;-0.85;79.81;101286.58;2154230;82;27733;-62
2023/01/04 06:25:54;;;;;;;44.75;25.62;;;;;;;-0.80;80.01;101275.66;2139955;83;29505;-62
2023/01/04 06:28:57;;;;;;;44.10;26.07;;;;;;;-0.75;80.11;101269.16;2140238;83;32238;-63
2023/01/04 06:32:00;;;;;;;43.33;25.32;;;;;;;-0.71;80.03;101268.31;2140278;83;33394;-62
2023/01/04 06:35:04;;;;;;;48.83;27.73;;;;;;;-0.66;80.13;101255.24;2140232;83;29385;-61
2023/01/04 06:38:06;;;;;;;58.58;31.02;;;;;;;-0.62;80.16;101249.12;2140250;83;27700;-61
2023/01/04 06:41:09;;;;;;;54.60;31.57;;;;;;;-0.59;80.29;101242.59;2139937;83;29406;-61
2023/01/04 06:44:11;;;;;;;53.78;30.60;;;;;;;-0.55;80.25;101233.87;2140126;83;31842;-61
2023/01/04 06:47:13;;;;;;;47.45;29.18;;;;;;;-0.52;80.27;101222.06;2139905;83;32885;-61
2023/01/04 06:50:16;;;;;;;49.00;28.83;;;;;;;-0.48;80.36;101222.97;2145668;82;29478;-61
2023/01/04 06:53:19;;;;;;;46.13;27.58;;;;;;;-0.45;80.36;101219.06;2161826;82;27657;-61
2023/01/04 06:56:22;;;;;;;46.42;26.93;;;;;;;-0.40;80.45;101217.79;2162039;82;29528;-61
2023/01/04 06:59:24;;;;;;;49.05;27.17;;;;;;;-0.36;80.65;101216.52;2162174;82;31098;-60
2023/01/04 07:02:27;;;;;;;43.28;27.48;;;;;;;-0.32;80.69;101209.11;2161915;82;33037;-61
2023/01/04 07:05:32;;;;;;;44.18;27.02;;;;;;;-0.26;80.83;101201.70;2161959;82;29406;-61
2023/01/04 07:08:35;;;;;;;44.13;26.57;;;;;;;-0.20;80.95;101203.08;2162628;82;27718;-61
2023/01/04 07:11:39;;;;;;;46.02;26.45;;;;;;;-0.12;81.04;101195.66;2161823;82;29478;-61
2023/01/04 07:14:41;;;;;;;40.00;25.68;;;;;;;-0.05;81.27;101195.73;2162187;82;31013;-61
2023/01/04 07:17:49;;;;;;;42.40;25.95;;;;;;;0.03;81.36;101186.58;2162291;82;32863;-61
2023/01/04 07:20:52;;;;;;;40.17;25.45;;;;;;;0.12;81.45;101183.13;2152657;82;29331;-61
2023/01/04 07:23:54;;;;;;;43.83;26.05;;;;;;;0.20;81.46;101175.28;2140561;83;28214;-61
2023/01/04 07:26:59;;;;;;;41.13;25.30;;;;;;;0.27;81.49;101170.52;2140027;83;29459;-61
2023/01/04 07:30:03;;;;;;;29.50;17.48;;;;;;;0.36;81.54;101174.97;2140434;83;31908;-61
2023/01/04 07:33:06;;;;;;;36.65;24.92;;;;;;;0.44;81.57;101174.56;2114321;83;33738;-60
2023/01/04 07:36:09;;;;;;;42.27;25.25;;;;;;;0.52;81.58;101175.93;2140381;83;30136;-60
2023/01/04 07:39:11;;;;;;;40.83;25.23;;;;;;;0.62;81.63;101173.81;2140745;82;27685;-61
2023/01/04 07:42:13;;;;;;;34.25;23.27;;;;;;;0.72;81.80;101168.16;2139999;83;30809;-61
2023/01/04 07:45:16;;;;;;;42.78;23.77;;;;;;;0.83;81.81;101157.20;2140117;83;31809;-61
2023/01/04 07:48:18;;;;;;;34.78;21.35;;;;;;;0.95;81.97;101153.75;2140113;83;32996;-61
2023/01/04 07:51:20;;;;;;;32.73;21.07;;;;;;;1.11;82.14;101143.24;2140549;82;30122;-60
2023/01/04 07:54:23;;;;;;;35.78;19.87;;;;;;;1.25;82.17;101155.14;2140466;83;27692;-61
2023/01/04 07:57:25;;;;;;;30.77;19.70;;;;;;;1.40;82.20;101162.23;2140065;83;29549;-61
2023/01/04 08:00:27;;;;;;;27.62;17.75;;;;;;;1.56;82.14;101165.80;2137150;83;31547;-61
2023/01/04 08:03:29;;;;;;;25.37;17.77;;;;;;;1.70;82.21;101150.84;2132631;83;33885;-60
2023/01/04 08:06:32;;;;;;;25.80;18.15;;;;;;;1.85;82.22;101140.70;2142719;83;29459;-60
2023/01/04 08:09:34;;;;;;;28.75;19.20;;;;;;;2.00;82.19;101134.97;2126019;83;27709;-60
2023/01/04 08:12:36;;;;;;;25.80;18.25;;;;;;;2.13;82.12;101128.35;2142925;83;29072;-60
2023/01/04 08:15:41;;;;;;;30.05;17.42;;;;;;;2.28;82.23;101126.14;2126263;83;32194;-62
2023/01/04 08:18:45;;;;;;;;;;;;;;;2.41;82.17;101122.14;2144787;83;35092;-62
2023/01/04 08:21:48;;;;;;;26.40;16.52;;;;;;;2.58;82.17;101128.26;2126161;83;29372;-61
2023/01/04 08:24:50;;;;;;;28.30;18.20;;;;;;;2.73;82.24;101122.47;2143092;83;27966;-61
2023/01/04 08:27:52;;;;;;;29.07;19.27;;;;;;;2.89;82.30;101113.58;2126300;83;28116;-61
2023/01/04 08:30:54;;;;;;;30.97;19.10;;;;;;;3.08;82.26;101107.30;2142869;83;31536;-61
2023/01/04 08:33:58;;;;;;;33.28;17.20;;;;;;;3.26;82.27;101089.98;2126213;83;33020;-61
2023/01/04 08:37:06;;;;;;;26.70;15.88;;;;;;;3.45;82.29;101089.43;2116216;83;29334;-61
2023/01/04 08:40:14;;;;;;;25.77;16.75;;;;;;;3.64;82.22;101087.50;2126404;83;27661;-61
2023/01/04 08:43:21;;;;;;;21.12;15.85;;;;;;;3.84;82.12;101083.81;2142730;83;28754;-62
2023/01/04 08:46:23;;;;;;;21.65;14.80;;;;;;;4.02;81.96;101075.25;2126350;83;31697;-61
2023/01/04 08:49:25;;;;;;;23.38;14.23;;;;;;;4.21;81.88;101066.64;2141568;83;34199;-62
2023/01/04 08:52:28;;;;;;;20.88;14.33;;;;;;;4.36;81.56;101056.32;2138436;83;30113;-61
2023/01/04 08:55:34;;;;;;;25.17;15.55;;;;;;;4.51;81.47;101056.56;2138243;83;27678;-62
2023/01/04 08:58:37;;;;;;;21.85;14.33;;;;;;;4.66;81.38;101044.43;2138879;83;29404;-62
2023/01/04 09:01:41;;;;;;;18.92;13.38;;;;;;;4.81;81.28;101037.16;2123545;83;30680;-61
2023/01/04 09:04:43;;;;;;;19.25;14.45;;;;;;;4.93;80.93;101029.04;2165196;82;32979;-61
2023/01/04 09:07:46;;;;;;;18.35;13.25;;;;;;;5.08;80.88;101023.94;2140755;83;30212;-62
2023/01/04 09:10:49;;;;;;;17.40;12.28;;;;;;;5.17;80.60;101019.83;2141320;83;27648;-62
2023/01/04 09:13:58;;;;;;;17.92;11.28;;;;;;;5.27;80.38;101013.02;2141074;83;29352;-61
2023/01/04 09:17:00;;;;;;;15.13;11.40;;;;;;;5.38;79.95;101004.42;2127816;83;31028;-61
2023/01/04 09:20:03;;;;;;;19.12;11.20;;;;;;;5.47;80.00;101000.73;2141129;83;33736;-62
2023/01/04 09:23:05;;;;;;;18.02;11.00;;;;;;;5.58;79.87;100993.47;2140965;83;31431;-61
2023/01/04 09:26:15;;;;;;;15.00;10.10;;;;;;;5.66;79.59;100982.70;2165543;81;28298;-62
2023/01/04 09:29:18;;;;;;;17.75;10.35;;;;;;;5.75;79.36;100971.02;2164209;82;29403;-61
2023/01/04 09:32:20;;;;;;;15.45;10.18;;;;;;;5.86;79.17;100966.36;2165418;82;31138;-61
2023/01/04 09:35:22;;;;;;;16.45;10.10;;;;;;;5.92;79.10;100951.63;2165310;82;33763;-61
2023/01/04 09:38:25;;;;;;;13.58;10.03;;;;;;;6.01;78.87;100942.63;2165058;82;30500;-61
2023/01/04 09:41:36;;;;;;;13.55;9.13;;;;;;;6.10;78.51;100938.00;2165480;82;27624;-62
2023/01/04 09:45:00;;;;;;;16.95;10.20;;;;;;;6.14;78.37;100929.92;2164800;82;28775;-61
2023/01/04 09:48:13;;;;;;;12.47;9.85;;;;;;;6.22;78.14;100930.65;2159377;81;31040;-61
2023/01/04 09:51:18;;;;;;;13.45;10.10;;;;;;;6.29;78.09;100915.42;2140511;83;34414;-61
2023/01/04 09:54:22;;;;;;;16.77;9.38;;;;;;;6.32;77.84;100898.50;2107223;84;29417;-60
2023/01/04 09:57:32;;;;;;;17.60;9.78;;;;;;;6.38;77.77;100893.92;2107348;84;27610;-62
2023/01/04 10:00:44;;;;;;;16.77;9.18;;;;;;;6.46;77.79;100879.57;2069543;84;28732;-61
2023/01/04 10:04:06;;;;;;;32.00;19.52;;;;;;;6.57;77.64;100875.34;2091161;84;31294;-61
2023/01/04 10:07:19;;;;;;;42.33;26.62;;;;;;;6.66;77.51;100871.11;2103304;84;33073;-61
2023/01/04 10:10:45;;;;;;;188.97;95.03;;;;;;;6.75;77.34;100864.68;2103633;84;29875;-62
2023/01/04 10:14:23;;;;;;;64.80;39.55;;;;;;;6.84;77.32;100864.00;2097834;84;27848;-61
2023/01/04 10:18:05;;;;;;;92.82;53.58;;;;;;;6.94;77.30;100850.00;2064775;86;29496;-62
2023/01/04 10:21:49;;;;;;;65.47;39.80;;;;;;;7.07;77.14;100839.02;2078283;85;27799;-63
2023/01/04 10:25:20;;;;;;;47.17;27.17;;;;;;;7.18;76.69;100824.08;2078156;85;34148;-62
2023/01/04 10:28:50;;;;;;;71.77;40.67;;;;;;;7.29;76.74;100817.55;2079102;85;30531;-61
2023/01/04 10:32:23;;;;;;;38.35;22.37;;;;;;;7.44;76.52;100800.27;2078720;85;27800;-62
2023/01/04 10:35:26;;;;;;;17.60;10.43;;;;;;;7.58;76.15;100798.51;2079999;85;28154;-61
2023/01/04 10:38:32;;;;;;;21.23;12.15;;;;;;;7.71;76.10;100786.13;2079943;85;31820;-61
2023/01/04 10:41:39;;;;;;;23.12;13.30;;;;;;;7.82;75.70;100779.15;2079895;85;32961;-62
2023/01/04 10:45:04;;;;;;;11.43;6.92;;;;;;;7.90;75.45;100771.80;2079643;85;29489;-61
2023/01/04 10:48:24;;;;;;;17.87;10.85;;;;;;;7.96;75.06;100756.92;2097924;84;27755;-61
2023/01/04 10:51:30;;;;;;;22.55;13.72;;;;;;;8.02;74.55;100748.73;2102218;84;29816;-62
2023/01/04 10:54:47;;;;;;;19.40;11.57;;;;;;;8.05;74.30;100744.64;2165691;82;32000;-61
2023/01/04 10:57:57;;;;;;;13.18;8.20;;;;;;;8.09;74.40;100741.40;2170758;82;33016;-62
2023/01/04 11:01:13;;;;;;;22.42;12.85;;;;;;;8.14;74.25;100731.45;2137847;83;29728;-62
2023/01/04 11:04:25;;;;;;;22.67;14.58;;;;;;;8.17;74.14;100722.47;2137568;83;27646;-61
2023/01/04 11:07:35;;;;;;;19.98;11.03;;;;;;;8.22;73.93;100727.20;2138006;83;28497;-61
2023/01/04 11:10:51;;;;;;;17.92;12.65;;;;;;;8.26;74.12;100731.97;2137712;83;31630;-62
2023/01/04 11:13:53;;;;;;;24.00;14.30;;;;;;;8.28;73.83;100712.30;2134884;83;33091;-62
2023/01/04 11:16:59;;;;;;;19.48;10.08;;;;;;;8.31;73.81;100711.34;2137502;83;29389;-62
2023/01/04 11:20:01;;;;;;;41.02;28.17;;;;;;;8.31;73.00;100685.51;2138047;83;27721;-62
2023/01/04 11:23:13;;;;;;;26.45;18.40;;;;;;;8.29;72.71;100682.02;2141561;82;29604;-62
2023/01/04 11:26:21;;;;;;;11.05;6.87;;;;;;;8.28;72.53;100674.92;2147402;82;31903;-62
2023/01/04 11:29:31;;;;;;;9.98;5.20;;;;;;;8.29;72.67;100666.00;2123006;82;33827;-62
2023/01/04 11:32:57;;;;;;;12.90;5.17;;;;;;;8.33;72.78;100662.78;2147992;82;29336;-62
2023/01/04 11:36:00;;;;;;;8.53;4.15;;;;;;;8.38;72.62;100660.80;2147901;82;27591;-61
2023/01/04 11:39:06;;;;;;;7.53;3.22;;;;;;;8.44;72.19;100645.06;2144587;83;29984;-62
2023/01/04 11:42:14;;;;;;;10.75;4.15;;;;;;;8.48;71.91;100631.58;2145070;82;32030;-61
2023/01/04 11:45:26;;;;;;;5.05;3.58;;;;;;;8.55;71.45;100628.66;2157613;82;32945;-61
2023/01/04 11:48:38;;;;;;;8.78;3.17;;;;;;;8.60;71.51;100607.58;2158258;82;29334;-62
2023/01/04 11:51:40;;;;;;;7.20;4.35;;;;;;;8.62;70.76;100603.02;2156770;82;27706;-62
2023/01/04 11:54:42;;;;;;;7.08;3.52;;;;;;;8.63;70.78;100595.89;2126260;83;30803;-62
2023/01/04 11:57:44;;;;;;;6.50;3.80;;;;;;;8.63;70.72;100594.08;2126617;83;32184;-62
2023/01/04 12:00:57;;;;;;;6.60;3.90;;;;;;;8.65;71.05;100588.22;2126535;83;33124;-62
2023/01/04 12:03:59;;;;;;;7.42;3.92;;;;;;;8.64;71.00;100589.15;2126354;82;29380;-61
2023/01/04 12:07:08;;;;;;;7.33;3.83;;;;;;;8.62;71.25;100582.13;2126673;83;27681;-62
2023/01/04 12:10:25;;;;;;;6.15;3.30;;;;;;;8.58;71.18;100577.38;2126547;83;28667;-62
2023/01/04 12:13:28;;;;;;;5.25;3.20;;;;;;;8.52;71.21;100570.91;2126300;83;32242;-62
2023/01/04 12:16:56;;;;;;;4.12;3.42;;;;;;;8.46;71.04;100553.30;2126543;83;33034;-62
2023/01/04 12:20:02;;;;;;;7.83;3.60;;;;;;;8.45;71.33;100549.33;2126053;82;30462;-61
2023/01/04 12:23:04;;;;;;;5.00;3.05;;;;;;;8.43;71.41;100542.72;2124258;82;27970;-63
2023/01/04 12:26:07;;;;;;;14.47;6.70;;;;;;;8.40;71.04;100520.61;2126265;82;29554;-63
2023/01/04 12:29:32;;;;;;;6.33;3.12;;;;;;;8.39;71.44;100521.06;2098456;83;32007;-62
2023/01/04 12:32:37;;;;;;;7.83;3.47;;;;;;;8.38;71.20;100505.97;2126600;82;34298;-62
2023/01/04 12:36:07;;;;;;;;;;;;;;;8.38;70.60;100493.10;2128954;83;30217;-62
2023/01/04 12:39:17;;;;;;;8.18;3.77;;;;;;;8.35;70.74;100487.42;2126807;83;27613;-62
2023/01/04 12:42:23;;;;;;;7.25;4.50;;;;;;;8.36;70.46;100487.80;2126674;82;28672;-62
2023/01/04 12:45:25;;;;;;;7.35;3.72;;;;;;;8.37;70.40;100486.88;2126760;82;32095;-61
2023/01/04 12:52:13;;;;;;;3.80;2.83;;;;;;;8.40;70.07;100473.89;2132674;82;30632;-62
2023/01/04 12:55:44;;;;;;;4.83;2.77;;;;;;;8.43;69.74;100461.30;2158214;82;27684;-63
2023/01/04 12:59:05;;;;;;;4.92;3.60;;;;;;;8.47;69.44;100457.58;2158046;82;29580;-63
2023/01/04 13:02:20;;;;;;;8.60;4.00;;;;;;;8.52;69.61;100457.44;2102620;83;31057;-61
2023/01/04 13:05:31;;;;;;;5.30;3.75;;;;;;;8.56;69.20;100459.06;2096773;84;33702;-63
2023/01/04 13:08:41;;;;;;;11.90;5.62;;;;;;;8.57;69.40;100439.89;2096689;84;30501;-64
2023/01/04 13:11:57;;;;;;;19.92;9.50;;;;;;;8.59;69.60;100438.03;2096445;84;27984;-62
2023/01/04 13:15:07;;;;;;;16.77;9.10;;;;;;;8.58;69.73;100429.62;2096238;84;28755;-64
2023/01/04 13:18:50;;;;;;;11.88;6.42;;;;;;;8.55;69.30;100424.39;2096399;84;31896;-64
2023/01/04 13:21:52;;;;;;;8.38;4.47;;;;;;;8.51;69.57;100418.31;2096540;84;33348;-64
2023/01/04 13:24:56;;;;;;;7.15;4.15;;;;;;;8.46;69.53;100397.11;2096686;84;30181;-63
2023/01/04 13:28:04;;;;;;;13.80;6.85;;;;;;;8.42;69.80;100399.48;2096932;84;27777;-63
2023/01/04 13:31:05;;;;;;;15.23;7.53;;;;;;;8.41;70.33;100387.55;2096499;84;28651;-62
2023/01/04 13:34:21;;;;;;;13.18;7.75;;;;;;;8.37;70.40;100378.77;2096268;84;31054;-63
2023/01/04 13:37:45;;;;;;;11.03;7.28;;;;;;;8.31;70.51;100359.00;2065357;85;59125;-63
2023/01/04 13:40:48;;;;;;;13.53;9.45;;;;;;;8.24;70.46;100361.49;2106695;84;30569;-63
2023/01/04 13:43:57;;;;;;;16.15;10.75;;;;;;;8.18;70.69;100359.49;2107041;84;28407;-63
2023/01/04 13:46:59;;;;;;;8.20;5.62;;;;;;;8.13;70.78;100365.91;2106683;84;29224;-64
2023/01/04 13:50:01;;;;;;;10.98;6.97;;;;;;;8.09;70.73;100370.50;2106629;84;32256;-65
2023/01/04 13:53:05;;;;;;;7.67;5.08;;;;;;;8.05;70.92;100381.77;2127832;83;34209;-64
2023/01/04 13:56:19;;;;;;;6.87;4.80;;;;;;;8.02;70.98;100375.69;2120362;84;30133;-65
2023/01/04 13:59:21;;;;;;;8.17;5.03;;;;;;;7.98;70.95;100362.05;2139744;83;27681;-65
2023/01/04 14:02:23;;;;;;;9.08;5.03;;;;;;;7.94;71.12;100362.64;2142910;82;29153;-65
2023/01/04 14:05:25;;;;;;;7.37;5.00;;;;;;;7.90;71.15;100349.85;2146669;82;32299;-65
2023/01/04 14:08:34;;;;;;;10.50;6.47;;;;;;;7.85;71.32;100353.62;2146467;82;34206;-66
2023/01/04 14:12:03;;;;;;;10.25;6.62;;;;;;;7.83;71.52;100356.81;2146736;82;29706;-64
2023/01/04 14:15:24;;;;;;;11.12;6.37;;;;;;;7.80;71.69;100349.80;2147038;82;27522;-64
2023/01/04 14:18:28;;;;;;;13.55;6.62;;;;;;;7.75;71.86;100339.77;2146515;82;29568;-62
2023/01/04 14:21:36;;;;;;;9.05;6.47;;;;;;;7.72;72.04;100337.20;2146830;82;31189;-63
2023/01/04 14:24:40;;;;;;;8.20;5.58;;;;;;;7.69;72.19;100330.68;2146588;82;33067;-63
2023/01/04 14:27:43;;;;;;;10.30;5.80;;;;;;;7.64;72.20;100329.49;2141980;82;29315;-62
2023/01/04 14:30:51;;;;;;;7.42;5.72;;;;;;;7.61;72.37;100332.30;2148163;82;27665;-61
2023/01/04 14:33:54;;;;;;;9.88;6.20;;;;;;;7.61;72.54;100334.97;2135470;83;29933;-61
2023/01/04 14:37:03;;;;;;;8.90;5.97;;;;;;;7.59;72.48;100339.00;2136880;83;31922;-63
2023/01/04 14:40:25;;;;;;;7.55;4.50;;;;;;;7.56;72.57;100332.92;2148052;82;32966;-61
2023/01/04 14:43:38;;;;;;;7.85;5.15;;;;;;;7.53;72.74;100327.22;2155808;81;29366;-62
2023/01/04 14:46:42;;;;;;;12.65;6.53;;;;;;;7.50;72.87;100321.14;2140564;82;27950;-62
2023/01/04 14:49:44;;;;;;;8.95;5.15;;;;;;;7.46;73.08;100321.72;2134486;82;29896;-61
2023/01/04 14:52:54;;;;;;;9.95;5.70;;;;;;;7.44;73.15;100315.58;2145009;82;32176;-61
2023/01/04 14:55:56;;;;;;;14.33;8.55;;;;;;;7.41;73.28;100311.23;2140932;82;33162;-64
2023/01/04 14:58:58;;;;;;;11.12;7.60;;;;;;;7.37;73.48;100299.38;2147093;82;29392;-63
2023/01/04 15:02:00;;;;;;;11.48;7.62;;;;;;;7.36;73.62;100281.69;2135339;82;28459;-63
2023/01/04 15:05:02;;;;;;;10.50;6.62;;;;;;;7.32;73.78;100271.58;2144379;82;29993;-63
2023/01/04 15:08:04;;;;;;;10.32;6.25;;;;;;;7.28;73.68;100283.30;2140977;82;31830;-64
2023/01/04 15:11:06;;;;;;;11.40;6.42;;;;;;;7.24;73.87;100276.33;2144290;82;34174;-64
2023/01/04 15:14:08;;;;;;;10.98;6.25;;;;;;;7.21;73.99;100274.63;2144596;82;30341;-64
2023/01/04 15:17:10;;;;;;;11.90;7.60;;;;;;;7.20;74.14;100270.22;2100317;83;27763;-64